sensor_id;sensor_type;location;lat;lon;timestamp;temperature;humidity
40960;DHT22;27842;52.272;8.052;2023-02-28T00:00:08;2.50;99.90
40960;DHT22;27842;52.272;8.052;2023-02-28T00:02:41;2.50;99.90
40960;DHT22;27842;52.272;8.052;2023-02-28T00:05:09;2.50;99.90
40960;DHT22;27842;52.272;8.052;2023-02-28T00:07:36;2.50;99.90
40960;DHT22;27842;52.272;8.052;2023-02-28T00:10:02;2.40;99.90
40960;DHT22;27842;52.272;8.052;2023-02-28T00:12:28;2.40;99.90
40960;DHT22;27842;52.272;8.052;2023-02-28T00:14:54;2.40;99.90
40960;DHT22;27842;52.272;8.052;2023-02-28T00:17:19;2.40;99.90
40960;DHT22;27842;52.272;8.052;2023-02-28T00:19:50;2.40;99.90
40960;DHT22;27842;52.272;8.052;2023-02-28T00:22:17;2.40;99.90
40960;DHT22;27842;52.272;8.052;2023-02-28T00:24:44;2.40;99.90
40960;DHT22;27842;52.272;8.052;2023-02-28T00:27:10;2.30;99.90
40960;DHT22;27842;52.272;8.052;2023-02-28T00:29:36;2.30;99.90
40960;DHT22;27842;52.272;8.052;2023-02-28T00:32:01;2.30;99.90
40960;DHT22;27842;52.272;8.052;2023-02-28T00:34:27;2.30;99.90
40960;DHT22;27842;52.272;8.052;2023-02-28T00:36:53;2.30;99.90
40960;DHT22;27842;52.272;8.052;2023-02-28T00:39:18;2.30;99.90
40960;DHT22;27842;52.272;8.052;2023-02-28T00:41:44;2.30;99.90
40960;DHT22;27842;52.272;8.052;2023-02-28T00:44:09;2.20;99.90
40960;DHT22;27842;52.272;8.052;2023-02-28T00:46:35;2.20;99.90
40960;DHT22;27842;52.272;8.052;2023-02-28T00:49:00;2.20;99.90
40960;DHT22;27842;52.272;8.052;2023-02-28T00:51:26;2.20;99.90
40960;DHT22;27842;52.272;8.052;2023-02-28T00:53:51;2.20;99.90
40960;DHT22;27842;52.272;8.052;2023-02-28T00:56:17;2.20;99.90
40960;DHT22;27842;52.272;8.052;2023-02-28T00:58:43;2.20;99.90
40960;DHT22;27842;52.272;8.052;2023-02-28T01:01:08;2.20;99.90
40960;DHT22;27842;52.272;8.052;2023-02-28T01:03:34;2.20;99.90
40960;DHT22;27842;52.272;8.052;2023-02-28T01:05:59;2.20;99.90
40960;DHT22;27842;52.272;8.052;2023-02-28T01:08:25;2.10;99.90
40960;DHT22;27842;52.272;8.052;2023-02-28T01:10:52;2.10;99.90
40960;DHT22;27842;52.272;8.052;2023-02-28T01:13:18;2.10;99.90
40960;DHT22;27842;52.272;8.052;2023-02-28T01:15:53;2.10;99.90
40960;DHT22;27842;52.272;8.052;2023-02-28T01:18:20;2.10;99.90
40960;DHT22;27842;52.272;8.052;2023-02-28T01:20:46;2.00;99.90
40960;DHT22;27842;52.272;8.052;2023-02-28T01:23:11;2.10;99.90
40960;DHT22;27842;52.272;8.052;2023-02-28T01:25:37;2.10;99.90
40960;DHT22;27842;52.272;8.052;2023-02-28T01:28:07;2.10;99.90
40960;DHT22;27842;52.272;8.052;2023-02-28T01:30:33;2.10;99.90
40960;DHT22;27842;52.272;8.052;2023-02-28T01:32:59;2.10;99.90
40960;DHT22;27842;52.272;8.052;2023-02-28T01:35:25;2.00;99.90
40960;DHT22;27842;52.272;8.052;2023-02-28T01:37:50;2.00;99.90
40960;DHT22;27842;52.272;8.052;2023-02-28T01:40:16;2.00;99.90
40960;DHT22;27842;52.272;8.052;2023-02-28T01:42:42;2.00;99.90
40960;DHT22;27842;52.272;8.052;2023-02-28T01:45:30;2.00;99.90
40960;DHT22;27842;52.272;8.052;2023-02-28T01:48:03;2.00;99.90
40960;DHT22;27842;52.272;8.052;2023-02-28T01:50:33;2.00;99.90
40960;DHT22;27842;52.272;8.052;2023-02-28T01:53:03;2.00;99.90
40960;DHT22;27842;52.272;8.052;2023-02-28T01:55:30;2.00;99.90
40960;DHT22;27842;52.272;8.052;2023-02-28T01:58:02;2.00;99.90
40960;DHT22;27842;52.272;8.052;2023-02-28T02:00:29;2.00;99.90
40960;DHT22;27842;52.272;8.052;2023-02-28T02:03:00;1.90;99.90
40960;DHT22;27842;52.272;8.052;2023-02-28T02:05:29;1.90;99.90
40960;DHT22;27842;52.272;8.052;2023-02-28T02:08:05;1.90;99.90
40960;DHT22;27842;52.272;8.052;2023-02-28T02:16:25;1.90;99.90
40960;DHT22;27842;52.272;8.052;2023-02-28T02:21:58;1.90;99.90
40960;DHT22;27842;52.272;8.052;2023-02-28T02:24:58;1.90;99.90
40960;DHT22;27842;52.272;8.052;2023-02-28T02:28:09;1.80;99.90
40960;DHT22;27842;52.272;8.052;2023-02-28T02:39:16;1.80;99.90
40960;DHT22;27842;52.272;8.052;2023-02-28T02:41:51;1.80;99.90
40960;DHT22;27842;52.272;8.052;2023-02-28T02:44:19;1.80;99.90
40960;DHT22;27842;52.272;8.052;2023-02-28T02:46:47;1.70;99.90
40960;DHT22;27842;52.272;8.052;2023-02-28T02:49:22;1.70;99.90
40960;DHT22;27842;52.272;8.052;2023-02-28T02:51:49;1.70;99.90
40960;DHT22;27842;52.272;8.052;2023-02-28T02:54:27;1.70;99.90
40960;DHT22;27842;52.272;8.052;2023-02-28T02:56:59;1.70;99.90
40960;DHT22;27842;52.272;8.052;2023-02-28T02:59:30;1.60;99.90
40960;DHT22;27842;52.272;8.052;2023-02-28T03:01:59;1.60;99.90
40960;DHT22;27842;52.272;8.052;2023-02-28T03:04:31;1.70;99.90
40960;DHT22;27842;52.272;8.052;2023-02-28T03:06:58;1.60;99.90
40960;DHT22;27842;52.272;8.052;2023-02-28T03:09:25;1.60;99.90
40960;DHT22;27842;52.272;8.052;2023-02-28T03:11:56;1.60;99.90
40960;DHT22;27842;52.272;8.052;2023-02-28T03:17:15;1.50;99.90
40960;DHT22;27842;52.272;8.052;2023-02-28T03:20:01;1.50;99.90
40960;DHT22;27842;52.272;8.052;2023-02-28T03:28:18;1.50;99.90
40960;DHT22;27842;52.272;8.052;2023-02-28T03:30:53;1.50;99.90
40960;DHT22;27842;52.272;8.052;2023-02-28T03:33:28;1.40;99.90
40960;DHT22;27842;52.272;8.052;2023-02-28T03:36:14;1.40;99.90
40960;DHT22;27842;52.272;8.052;2023-02-28T03:38:49;1.30;99.90
40960;DHT22;27842;52.272;8.052;2023-02-28T03:41:22;1.30;99.90
40960;DHT22;27842;52.272;8.052;2023-02-28T03:44:11;1.30;99.90
40960;DHT22;27842;52.272;8.052;2023-02-28T03:46:46;1.30;99.90
40960;DHT22;27842;52.272;8.052;2023-02-28T03:51:43;1.30;99.90
40960;DHT22;27842;52.272;8.052;2023-02-28T03:54:15;1.30;99.90
40960;DHT22;27842;52.272;8.052;2023-02-28T03:56:50;1.20;99.90
40960;DHT22;27842;52.272;8.052;2023-02-28T03:59:40;1.20;99.90
40960;DHT22;27842;52.272;8.052;2023-02-28T04:02:08;1.20;99.90
40960;DHT22;27842;52.272;8.052;2023-02-28T04:04:34;1.10;99.90
40960;DHT22;27842;52.272;8.052;2023-02-28T04:07:07;1.10;99.90
40960;DHT22;27842;52.272;8.052;2023-02-28T04:09:33;1.10;99.90
40960;DHT22;27842;52.272;8.052;2023-02-28T04:11:59;1.10;99.90
40960;DHT22;27842;52.272;8.052;2023-02-28T04:14:24;1.00;99.90
40960;DHT22;27842;52.272;8.052;2023-02-28T04:16:50;1.00;99.90
40960;DHT22;27842;52.272;8.052;2023-02-28T04:19:16;1.00;99.90
40960;DHT22;27842;52.272;8.052;2023-02-28T04:21:44;1.00;99.90
40960;DHT22;27842;52.272;8.052;2023-02-28T04:24:13;1.00;99.90
40960;DHT22;27842;52.272;8.052;2023-02-28T04:26:46;1.00;99.90
40960;DHT22;27842;52.272;8.052;2023-02-28T04:29:13;1.00;99.90
40960;DHT22;27842;52.272;8.052;2023-02-28T04:31:40;1.00;99.90
40960;DHT22;27842;52.272;8.052;2023-02-28T04:34:05;0.90;99.90
40960;DHT22;27842;52.272;8.052;2023-02-28T04:36:31;0.90;99.90
40960;DHT22;27842;52.272;8.052;2023-02-28T04:38:57;0.90;99.90
40960;DHT22;27842;52.272;8.052;2023-02-28T04:41:23;0.90;99.90
40960;DHT22;27842;52.272;8.052;2023-02-28T04:43:50;0.90;99.90
40960;DHT22;27842;52.272;8.052;2023-02-28T04:46:15;0.80;99.90
40960;DHT22;27842;52.272;8.052;2023-02-28T04:48:41;0.80;99.90
40960;DHT22;27842;52.272;8.052;2023-02-28T04:51:12;0.80;99.90
40960;DHT22;27842;52.272;8.052;2023-02-28T04:53:39;0.80;99.90
40960;DHT22;27842;52.272;8.052;2023-02-28T04:56:06;0.80;99.90
40960;DHT22;27842;52.272;8.052;2023-02-28T04:58:38;0.80;99.90
40960;DHT22;27842;52.272;8.052;2023-02-28T05:01:07;0.80;99.90
40960;DHT22;27842;52.272;8.052;2023-02-28T05:03:40;0.80;99.90
40960;DHT22;27842;52.272;8.052;2023-02-28T05:06:06;0.80;99.90
40960;DHT22;27842;52.272;8.052;2023-02-28T05:08:32;0.80;99.90
40960;DHT22;27842;52.272;8.052;2023-02-28T05:10:58;0.80;99.90
40960;DHT22;27842;52.272;8.052;2023-02-28T05:13:26;0.80;99.90
40960;DHT22;27842;52.272;8.052;2023-02-28T05:15:52;0.80;99.90
40960;DHT22;27842;52.272;8.052;2023-02-28T05:18:18;0.80;99.90
40960;DHT22;27842;52.272;8.052;2023-02-28T05:20:43;0.70;99.90
40960;DHT22;27842;52.272;8.052;2023-02-28T05:23:12;0.80;99.90
40960;DHT22;27842;52.272;8.052;2023-02-28T05:25:38;0.80;99.90
40960;DHT22;27842;52.272;8.052;2023-02-28T05:28:04;0.70;99.90
40960;DHT22;27842;52.272;8.052;2023-02-28T05:30:30;0.70;99.90
40960;DHT22;27842;52.272;8.052;2023-02-28T05:32:57;0.70;99.90
40960;DHT22;27842;52.272;8.052;2023-02-28T05:35:23;0.80;99.90
40960;DHT22;27842;52.272;8.052;2023-02-28T05:37:49;0.70;99.90
40960;DHT22;27842;52.272;8.052;2023-02-28T05:40:15;0.70;99.90
40960;DHT22;27842;52.272;8.052;2023-02-28T05:42:41;0.70;99.90
40960;DHT22;27842;52.272;8.052;2023-02-28T05:45:07;0.70;99.90
40960;DHT22;27842;52.272;8.052;2023-02-28T05:47:34;0.70;99.90
40960;DHT22;27842;52.272;8.052;2023-02-28T05:49:59;0.70;99.90
40960;DHT22;27842;52.272;8.052;2023-02-28T05:52:26;0.70;99.90
40960;DHT22;27842;52.272;8.052;2023-02-28T05:54:52;0.70;99.90
40960;DHT22;27842;52.272;8.052;2023-02-28T05:57:17;0.70;99.90
40960;DHT22;27842;52.272;8.052;2023-02-28T05:59:49;0.80;99.90
40960;DHT22;27842;52.272;8.052;2023-02-28T06:02:17;0.80;99.90
40960;DHT22;27842;52.272;8.052;2023-02-28T06:04:43;0.80;99.90
40960;DHT22;27842;52.272;8.052;2023-02-28T06:07:09;0.80;99.90
40960;DHT22;27842;52.272;8.052;2023-02-28T06:09:35;0.70;99.90
40960;DHT22;27842;52.272;8.052;2023-02-28T06:12:03;0.70;99.90
40960;DHT22;27842;52.272;8.052;2023-02-28T06:14:31;0.70;99.90
40960;DHT22;27842;52.272;8.052;2023-02-28T06:16:57;0.70;99.90
40960;DHT22;27842;52.272;8.052;2023-02-28T06:19:23;0.70;99.90
40960;DHT22;27842;52.272;8.052;2023-02-28T06:21:51;0.70;99.90
40960;DHT22;27842;52.272;8.052;2023-02-28T06:24:21;0.70;99.90
40960;DHT22;27842;52.272;8.052;2023-02-28T06:26:49;0.70;99.90
40960;DHT22;27842;52.272;8.052;2023-02-28T06:29:15;0.70;99.90
40960;DHT22;27842;52.272;8.052;2023-02-28T06:31:44;0.70;99.90
40960;DHT22;27842;52.272;8.052;2023-02-28T06:34:10;0.70;99.90
40960;DHT22;27842;52.272;8.052;2023-02-28T06:36:40;0.70;99.90
40960;DHT22;27842;52.272;8.052;2023-02-28T06:39:07;0.70;99.90
40960;DHT22;27842;52.272;8.052;2023-02-28T06:41:32;0.70;99.90
40960;DHT22;27842;52.272;8.052;2023-02-28T06:44:12;0.60;99.90
40960;DHT22;27842;52.272;8.052;2023-02-28T06:46:40;0.70;99.90
40960;DHT22;27842;52.272;8.052;2023-02-28T06:49:06;0.70;99.90
40960;DHT22;27842;52.272;8.052;2023-02-28T06:51:35;0.70;99.90
40960;DHT22;27842;52.272;8.052;2023-02-28T06:54:01;0.60;99.90
40960;DHT22;27842;52.272;8.052;2023-02-28T06:56:26;0.70;99.90
40960;DHT22;27842;52.272;8.052;2023-02-28T06:58:52;0.70;99.90
40960;DHT22;27842;52.272;8.052;2023-02-28T07:01:21;0.70;99.90
40960;DHT22;27842;52.272;8.052;2023-02-28T07:03:49;0.70;99.90
40960;DHT22;27842;52.272;8.052;2023-02-28T07:06:18;0.70;99.90
40960;DHT22;27842;52.272;8.052;2023-02-28T07:08:43;0.70;99.90
40960;DHT22;27842;52.272;8.052;2023-02-28T07:11:10;0.70;99.90
40960;DHT22;27842;52.272;8.052;2023-02-28T07:13:36;0.70;99.90
40960;DHT22;27842;52.272;8.052;2023-02-28T07:16:06;0.70;99.90
40960;DHT22;27842;52.272;8.052;2023-02-28T07:18:34;0.70;99.90
40960;DHT22;27842;52.272;8.052;2023-02-28T07:21:05;0.80;99.90
40960;DHT22;27842;52.272;8.052;2023-02-28T07:23:31;0.80;99.90
40960;DHT22;27842;52.272;8.052;2023-02-28T07:25:58;0.80;99.90
40960;DHT22;27842;52.272;8.052;2023-02-28T07:28:23;0.80;99.90
40960;DHT22;27842;52.272;8.052;2023-02-28T07:30:49;0.80;99.90
40960;DHT22;27842;52.272;8.052;2023-02-28T07:33:15;0.80;99.90
40960;DHT22;27842;52.272;8.052;2023-02-28T07:35:41;0.80;99.90
40960;DHT22;27842;52.272;8.052;2023-02-28T07:38:07;0.90;99.90
40960;DHT22;27842;52.272;8.052;2023-02-28T07:40:36;0.90;99.90
40960;DHT22;27842;52.272;8.052;2023-02-28T07:43:02;0.90;99.90
40960;DHT22;27842;52.272;8.052;2023-02-28T07:45:34;0.90;99.90
40960;DHT22;27842;52.272;8.052;2023-02-28T07:48:00;0.90;99.90
40960;DHT22;27842;52.272;8.052;2023-02-28T07:50:26;0.90;99.90
40960;DHT22;27842;52.272;8.052;2023-02-28T07:52:57;1.00;99.90
40960;DHT22;27842;52.272;8.052;2023-02-28T07:55:22;1.00;99.90
40960;DHT22;27842;52.272;8.052;2023-02-28T07:57:48;1.00;99.90
40960;DHT22;27842;52.272;8.052;2023-02-28T08:00:13;1.00;99.90
40960;DHT22;27842;52.272;8.052;2023-02-28T08:02:39;1.00;99.90
40960;DHT22;27842;52.272;8.052;2023-02-28T08:05:06;1.00;99.90
40960;DHT22;27842;52.272;8.052;2023-02-28T08:07:32;1.00;99.90
40960;DHT22;27842;52.272;8.052;2023-02-28T08:09:58;1.00;99.90
40960;DHT22;27842;52.272;8.052;2023-02-28T08:12:24;1.10;99.90
40960;DHT22;27842;52.272;8.052;2023-02-28T08:14:50;1.10;99.90
40960;DHT22;27842;52.272;8.052;2023-02-28T08:17:15;1.20;99.90
40960;DHT22;27842;52.272;8.052;2023-02-28T08:19:41;1.20;99.90
40960;DHT22;27842;52.272;8.052;2023-02-28T08:22:06;1.30;99.90
40960;DHT22;27842;52.272;8.052;2023-02-28T08:24:32;1.40;99.90
40960;DHT22;27842;52.272;8.052;2023-02-28T08:26:58;1.40;99.90
40960;DHT22;27842;52.272;8.052;2023-02-28T08:29:24;1.60;99.90
40960;DHT22;27842;52.272;8.052;2023-02-28T08:31:49;1.60;99.90
40960;DHT22;27842;52.272;8.052;2023-02-28T08:34:16;1.70;99.90
40960;DHT22;27842;52.272;8.052;2023-02-28T08:36:42;1.70;99.90
40960;DHT22;27842;52.272;8.052;2023-02-28T08:39:11;1.80;99.90
40960;DHT22;27842;52.272;8.052;2023-02-28T08:41:37;1.90;99.90
40960;DHT22;27842;52.272;8.052;2023-02-28T08:44:03;2.00;99.90
40960;DHT22;27842;52.272;8.052;2023-02-28T08:46:28;2.10;99.90
40960;DHT22;27842;52.272;8.052;2023-02-28T08:48:56;2.20;99.90
40960;DHT22;27842;52.272;8.052;2023-02-28T08:51:25;2.30;99.90
40960;DHT22;27842;52.272;8.052;2023-02-28T08:53:55;2.40;99.90
40960;DHT22;27842;52.272;8.052;2023-02-28T08:56:22;2.40;99.90
40960;DHT22;27842;52.272;8.052;2023-02-28T08:58:48;2.60;99.90
40960;DHT22;27842;52.272;8.052;2023-02-28T09:03:40;2.70;99.90
40960;DHT22;27842;52.272;8.052;2023-02-28T09:06:11;2.90;99.90
40960;DHT22;27842;52.272;8.052;2023-02-28T09:08:37;2.90;99.90
40960;DHT22;27842;52.272;8.052;2023-02-28T09:11:03;3.00;99.90
40960;DHT22;27842;52.272;8.052;2023-02-28T09:13:29;3.10;99.90
40960;DHT22;27842;52.272;8.052;2023-02-28T09:15:59;3.20;99.90
40960;DHT22;27842;52.272;8.052;2023-02-28T09:18:26;3.30;99.90
40960;DHT22;27842;52.272;8.052;2023-02-28T09:20:51;3.50;99.90
40960;DHT22;27842;52.272;8.052;2023-02-28T09:23:17;3.60;99.90
40960;DHT22;27842;52.272;8.052;2023-02-28T09:25:51;3.70;99.90
40960;DHT22;27842;52.272;8.052;2023-02-28T09:28:18;3.90;99.90
40960;DHT22;27842;52.272;8.052;2023-02-28T09:30:46;4.10;99.90
40960;DHT22;27842;52.272;8.052;2023-02-28T09:33:13;4.20;99.90
40960;DHT22;27842;52.272;8.052;2023-02-28T09:35:39;4.40;99.10
40960;DHT22;27842;52.272;8.052;2023-02-28T09:38:05;4.60;96.40
40960;DHT22;27842;52.272;8.052;2023-02-28T09:40:36;4.70;94.50
40960;DHT22;27842;52.272;8.052;2023-02-28T09:43:02;4.80;91.30
40960;DHT22;27842;52.272;8.052;2023-02-28T09:45:37;4.90;93.40
40960;DHT22;27842;52.272;8.052;2023-02-28T09:48:12;5.00;90.40
40960;DHT22;27842;52.272;8.052;2023-02-28T09:50:44;5.20;93.00
40960;DHT22;27842;52.272;8.052;2023-02-28T09:53:22;5.30;91.60
40960;DHT22;27842;52.272;8.052;2023-02-28T09:55:55;5.40;89.40
40960;DHT22;27842;52.272;8.052;2023-02-28T09:58:28;5.50;89.00
40960;DHT22;27842;52.272;8.052;2023-02-28T10:01:21;5.60;86.90
40960;DHT22;27842;52.272;8.052;2023-02-28T10:04:08;5.60;85.60
40960;DHT22;27842;52.272;8.052;2023-02-28T10:06:53;5.70;82.60
40960;DHT22;27842;52.272;8.052;2023-02-28T10:09:29;5.80;78.00
40960;DHT22;27842;52.272;8.052;2023-02-28T10:12:04;5.80;80.40
40960;DHT22;27842;52.272;8.052;2023-02-28T10:14:32;5.80;80.50
40960;DHT22;27842;52.272;8.052;2023-02-28T10:17:21;5.80;77.60
40960;DHT22;27842;52.272;8.052;2023-02-28T10:22:26;5.70;76.30
40960;DHT22;27842;52.272;8.052;2023-02-28T10:24:55;5.70;74.40
40960;DHT22;27842;52.272;8.052;2023-02-28T10:27:29;5.70;75.10
40960;DHT22;27842;52.272;8.052;2023-02-28T10:29:57;5.60;74.20
40960;DHT22;27842;52.272;8.052;2023-02-28T10:37:37;5.50;72.10
40960;DHT22;27842;52.272;8.052;2023-02-28T10:40:04;5.40;76.10
40960;DHT22;27842;52.272;8.052;2023-02-28T10:42:31;5.40;76.10
40960;DHT22;27842;52.272;8.052;2023-02-28T10:45:15;5.40;75.10
40960;DHT22;27842;52.272;8.052;2023-02-28T10:50:39;5.40;76.10
40960;DHT22;27842;52.272;8.052;2023-02-28T10:55:41;5.30;69.90
40960;DHT22;27842;52.272;8.052;2023-02-28T10:58:33;5.30;72.80
40960;DHT22;27842;52.272;8.052;2023-02-28T11:01:13;5.30;72.00
40960;DHT22;27842;52.272;8.052;2023-02-28T11:03:39;5.30;71.50
40960;DHT22;27842;52.272;8.052;2023-02-28T11:06:15;5.30;71.30
40960;DHT22;27842;52.272;8.052;2023-02-28T11:08:46;5.30;71.00
40960;DHT22;27842;52.272;8.052;2023-02-28T11:11:12;5.30;71.90
40960;DHT22;27842;52.272;8.052;2023-02-28T11:13:38;5.40;71.20
40960;DHT22;27842;52.272;8.052;2023-02-28T11:16:09;5.40;70.80
40960;DHT22;27842;52.272;8.052;2023-02-28T11:18:49;5.40;71.70
40960;DHT22;27842;52.272;8.052;2023-02-28T11:21:37;5.40;73.30
40960;DHT22;27842;52.272;8.052;2023-02-28T11:24:29;5.50;71.80
40960;DHT22;27842;52.272;8.052;2023-02-28T11:26:55;5.60;73.30
40960;DHT22;27842;52.272;8.052;2023-02-28T11:29:24;5.60;73.20
40960;DHT22;27842;52.272;8.052;2023-02-28T11:32:19;5.60;68.20
40960;DHT22;27842;52.272;8.052;2023-02-28T11:34:46;5.60;71.70
40960;DHT22;27842;52.272;8.052;2023-02-28T11:37:17;5.60;71.50
40960;DHT22;27842;52.272;8.052;2023-02-28T11:39:44;5.60;71.70
40960;DHT22;27842;52.272;8.052;2023-02-28T11:42:21;5.60;70.00
40960;DHT22;27842;52.272;8.052;2023-02-28T11:45:03;5.70;72.00
40960;DHT22;27842;52.272;8.052;2023-02-28T11:47:50;5.60;71.10
40960;DHT22;27842;52.272;8.052;2023-02-28T11:50:39;5.70;70.80
40960;DHT22;27842;52.272;8.052;2023-02-28T11:55:45;5.70;69.70
40960;DHT22;27842;52.272;8.052;2023-02-28T12:03:58;5.70;71.80
40960;DHT22;27842;52.272;8.052;2023-02-28T12:06:35;5.80;71.00
40960;DHT22;27842;52.272;8.052;2023-02-28T12:09:34;5.80;71.30
40960;DHT22;27842;52.272;8.052;2023-02-28T12:18:11;5.90;69.30
40960;DHT22;27842;52.272;8.052;2023-02-28T12:24:13;6.00;69.70
40960;DHT22;27842;52.272;8.052;2023-02-28T12:26:41;6.00;69.30
40960;DHT22;27842;52.272;8.052;2023-02-28T12:29:28;6.10;68.30
40960;DHT22;27842;52.272;8.052;2023-02-28T12:32:05;6.20;68.00
40960;DHT22;27842;52.272;8.052;2023-02-28T12:34:35;6.20;68.10
40960;DHT22;27842;52.272;8.052;2023-02-28T12:37:06;6.20;67.80
40960;DHT22;27842;52.272;8.052;2023-02-28T12:39:38;6.30;66.10
40960;DHT22;27842;52.272;8.052;2023-02-28T12:42:30;6.40;64.60
40960;DHT22;27842;52.272;8.052;2023-02-28T12:45:24;6.40;64.40
40960;DHT22;27842;52.272;8.052;2023-02-28T12:48:00;6.30;65.20
40960;DHT22;27842;52.272;8.052;2023-02-28T12:50:27;6.40;65.70
40960;DHT22;27842;52.272;8.052;2023-02-28T12:53:03;6.40;64.90
40960;DHT22;27842;52.272;8.052;2023-02-28T12:58:31;6.40;64.60
40960;DHT22;27842;52.272;8.052;2023-02-28T13:09:20;6.70;66.20
40960;DHT22;27842;52.272;8.052;2023-02-28T13:11:51;6.70;66.90
40960;DHT22;27842;52.272;8.052;2023-02-28T13:14:36;6.70;66.60
40960;DHT22;27842;52.272;8.052;2023-02-28T13:17:11;6.80;67.00
40960;DHT22;27842;52.272;8.052;2023-02-28T13:22:39;6.80;67.30
40960;DHT22;27842;52.272;8.052;2023-02-28T13:27:52;6.90;67.90
40960;DHT22;27842;52.272;8.052;2023-02-28T13:38:41;6.90;67.10
40960;DHT22;27842;52.272;8.052;2023-02-28T13:44:01;7.00;67.30
40960;DHT22;27842;52.272;8.052;2023-02-28T13:46:27;7.00;67.40
40960;DHT22;27842;52.272;8.052;2023-02-28T13:48:53;7.00;66.80
40960;DHT22;27842;52.272;8.052;2023-02-28T13:51:51;7.00;66.40
40960;DHT22;27842;52.272;8.052;2023-02-28T13:57:20;7.00;66.10
40960;DHT22;27842;52.272;8.052;2023-02-28T14:05:19;6.90;65.50
40960;DHT22;27842;52.272;8.052;2023-02-28T14:08:14;6.90;64.20
40960;DHT22;27842;52.272;8.052;2023-02-28T14:10:44;6.80;65.40
40960;DHT22;27842;52.272;8.052;2023-02-28T14:13:43;6.80;66.30
40960;DHT22;27842;52.272;8.052;2023-02-28T14:16:14;6.80;65.50
40960;DHT22;27842;52.272;8.052;2023-02-28T14:18:47;6.80;67.10
40960;DHT22;27842;52.272;8.052;2023-02-28T14:21:24;6.90;66.80
40960;DHT22;27842;52.272;8.052;2023-02-28T14:24:13;6.90;66.20
40960;DHT22;27842;52.272;8.052;2023-02-28T14:27:00;7.00;66.00
40960;DHT22;27842;52.272;8.052;2023-02-28T14:32:33;7.10;65.60
40960;DHT22;27842;52.272;8.052;2023-02-28T14:37:44;7.20;65.20
40960;DHT22;27842;52.272;8.052;2023-02-28T14:40:37;7.10;64.90
40960;DHT22;27842;52.272;8.052;2023-02-28T14:43:05;7.00;64.90
40960;DHT22;27842;52.272;8.052;2023-02-28T14:45:33;7.00;65.40
40960;DHT22;27842;52.272;8.052;2023-02-28T14:48:00;7.00;64.90
40960;DHT22;27842;52.272;8.052;2023-02-28T14:50:30;6.90;64.20
40960;DHT22;27842;52.272;8.052;2023-02-28T14:52:57;6.80;65.00
40960;DHT22;27842;52.272;8.052;2023-02-28T14:55:35;6.70;63.30
40960;DHT22;27842;52.272;8.052;2023-02-28T14:58:05;6.60;65.90
40960;DHT22;27842;52.272;8.052;2023-02-28T15:00:34;6.60;66.50
40960;DHT22;27842;52.272;8.052;2023-02-28T15:03:11;6.50;66.10
40960;DHT22;27842;52.272;8.052;2023-02-28T15:05:52;6.50;66.00
40960;DHT22;27842;52.272;8.052;2023-02-28T15:08:18;6.50;65.80
40960;DHT22;27842;52.272;8.052;2023-02-28T15:10:51;6.50;64.80
40960;DHT22;27842;52.272;8.052;2023-02-28T15:13:18;6.40;65.30
40960;DHT22;27842;52.272;8.052;2023-02-28T15:15:57;6.30;66.00
40960;DHT22;27842;52.272;8.052;2023-02-28T15:18:48;6.30;66.30
40960;DHT22;27842;52.272;8.052;2023-02-28T15:21:27;6.30;66.50
40960;DHT22;27842;52.272;8.052;2023-02-28T15:23:59;6.30;66.70
40960;DHT22;27842;52.272;8.052;2023-02-28T15:26:31;6.30;66.40
40960;DHT22;27842;52.272;8.052;2023-02-28T15:29:08;6.20;67.20
40960;DHT22;27842;52.272;8.052;2023-02-28T15:31:47;6.20;66.80
40960;DHT22;27842;52.272;8.052;2023-02-28T15:34:20;6.20;66.80
40960;DHT22;27842;52.272;8.052;2023-02-28T15:36:47;6.10;67.30
40960;DHT22;27842;52.272;8.052;2023-02-28T15:39:24;6.10;66.60
40960;DHT22;27842;52.272;8.052;2023-02-28T15:41:52;6.00;67.10
40960;DHT22;27842;52.272;8.052;2023-02-28T15:44:35;6.00;67.20
40960;DHT22;27842;52.272;8.052;2023-02-28T15:47:06;6.00;67.20
40960;DHT22;27842;52.272;8.052;2023-02-28T15:49:48;6.00;67.40
40960;DHT22;27842;52.272;8.052;2023-02-28T15:52:39;5.90;67.60
40960;DHT22;27842;52.272;8.052;2023-02-28T15:55:24;5.90;68.60
40960;DHT22;27842;52.272;8.052;2023-02-28T15:57:55;5.90;69.10
40960;DHT22;27842;52.272;8.052;2023-02-28T16:00:25;5.80;69.20
40960;DHT22;27842;52.272;8.052;2023-02-28T16:02:52;5.90;69.30
40960;DHT22;27842;52.272;8.052;2023-02-28T16:05:26;5.90;69.10
40960;DHT22;27842;52.272;8.052;2023-02-28T16:08:09;5.80;69.20
40960;DHT22;27842;52.272;8.052;2023-02-28T16:10:36;5.90;69.40
40960;DHT22;27842;52.272;8.052;2023-02-28T16:13:02;5.80;69.50
40960;DHT22;27842;52.272;8.052;2023-02-28T16:15:29;5.90;69.50
40960;DHT22;27842;52.272;8.052;2023-02-28T16:17:56;5.80;70.00
40960;DHT22;27842;52.272;8.052;2023-02-28T16:20:26;5.70;70.00
40960;DHT22;27842;52.272;8.052;2023-02-28T16:22:55;5.80;70.40
40960;DHT22;27842;52.272;8.052;2023-02-28T16:25:34;5.80;70.20
40960;DHT22;27842;52.272;8.052;2023-02-28T16:28:00;5.80;69.80
40960;DHT22;27842;52.272;8.052;2023-02-28T16:30:28;5.80;70.10
40960;DHT22;27842;52.272;8.052;2023-02-28T16:32:57;5.70;70.40
40960;DHT22;27842;52.272;8.052;2023-02-28T16:35:22;5.70;70.80
40960;DHT22;27842;52.272;8.052;2023-02-28T16:37:50;5.70;70.40
40960;DHT22;27842;52.272;8.052;2023-02-28T16:40:20;5.70;70.50
40960;DHT22;27842;52.272;8.052;2023-02-28T16:42:49;5.60;70.90
40960;DHT22;27842;52.272;8.052;2023-02-28T16:45:26;5.60;71.60
40960;DHT22;27842;52.272;8.052;2023-02-28T16:47:53;5.60;71.70
40960;DHT22;27842;52.272;8.052;2023-02-28T16:50:21;5.70;71.80
40960;DHT22;27842;52.272;8.052;2023-02-28T16:52:48;5.60;71.60
40960;DHT22;27842;52.272;8.052;2023-02-28T16:55:15;5.60;71.50
40960;DHT22;27842;52.272;8.052;2023-02-28T16:57:41;5.60;71.50
40960;DHT22;27842;52.272;8.052;2023-02-28T17:00:11;5.60;71.70
40960;DHT22;27842;52.272;8.052;2023-02-28T17:02:38;5.60;71.50
40960;DHT22;27842;52.272;8.052;2023-02-28T17:05:04;5.60;71.60
40960;DHT22;27842;52.272;8.052;2023-02-28T17:07:32;5.50;71.70
40960;DHT22;27842;52.272;8.052;2023-02-28T17:09:57;5.50;72.20
40960;DHT22;27842;52.272;8.052;2023-02-28T17:12:23;5.50;72.20
40960;DHT22;27842;52.272;8.052;2023-02-28T17:14:49;5.50;72.00
40960;DHT22;27842;52.272;8.052;2023-02-28T17:17:20;5.50;72.30
40960;DHT22;27842;52.272;8.052;2023-02-28T17:19:47;5.40;72.90
40960;DHT22;27842;52.272;8.052;2023-02-28T17:22:13;5.40;73.40
40960;DHT22;27842;52.272;8.052;2023-02-28T17:24:39;5.40;72.60
40960;DHT22;27842;52.272;8.052;2023-02-28T17:27:06;5.40;72.60
40960;DHT22;27842;52.272;8.052;2023-02-28T17:29:34;5.40;72.80
40960;DHT22;27842;52.272;8.052;2023-02-28T17:31:59;5.30;72.70
40960;DHT22;27842;52.272;8.052;2023-02-28T17:34:25;5.30;73.60
40960;DHT22;27842;52.272;8.052;2023-02-28T17:36:51;5.30;73.90
40960;DHT22;27842;52.272;8.052;2023-02-28T17:39:18;5.30;74.00
40960;DHT22;27842;52.272;8.052;2023-02-28T17:41:52;5.30;73.80
40960;DHT22;27842;52.272;8.052;2023-02-28T17:44:18;5.30;73.90
40960;DHT22;27842;52.272;8.052;2023-02-28T17:46:45;5.30;74.30
40960;DHT22;27842;52.272;8.052;2023-02-28T17:49:10;5.20;74.30